sensor_id;sensor_type;location;lat;lon;timestamp;pressure;altitude;pressure_sealevel;temperature;humidity
9746;BME280;4912;50.836;12.958;2023-05-12T00:00:24;97750.66;;;16.21;57.74
9746;BME280;4912;50.836;12.958;2023-05-12T00:02:54;97748.41;;;16.25;58.01
9746;BME280;4912;50.836;12.958;2023-05-12T00:05:25;97751.97;;;16.20;58.18
9746;BME280;4912;50.836;12.958;2023-05-12T00:07:55;97744.09;;;16.24;58.42
9746;BME280;4912;50.836;12.958;2023-05-12T00:10:28;97751.19;;;16.25;58.73
9746;BME280;4912;50.836;12.958;2023-05-12T00:12:58;97746.38;;;16.20;58.96
9746;BME280;4912;50.836;12.958;2023-05-12T00:15:28;97749.66;;;16.18;59.96
9746;BME280;4912;50.836;12.958;2023-05-12T00:17:59;97749.16;;;16.20;59.71
9746;BME280;4912;50.836;12.958;2023-05-12T00:20:29;97749.91;;;16.20;60.10
9746;BME280;4912;50.836;12.958;2023-05-12T00:22:59;97751.69;;;16.18;60.17
9746;BME280;4912;50.836;12.958;2023-05-12T00:25:32;97744.31;;;16.15;60.45
9746;BME280;4912;50.836;12.958;2023-05-12T00:28:02;97748.41;;;16.19;60.37
9746;BME280;4912;50.836;12.958;2023-05-12T00:30:33;97747.66;;;16.19;59.53
9746;BME280;4912;50.836;12.958;2023-05-12T00:33:03;97754.00;;;16.19;58.18
9746;BME280;4912;50.836;12.958;2023-05-12T00:35:34;97756.25;;;16.21;57.59
9746;BME280;4912;50.836;12.958;2023-05-12T00:38:04;97747.63;;;16.24;56.89
9746;BME280;4912;50.836;12.958;2023-05-12T00:40:37;97743.06;;;16.21;56.28
9746;BME280;4912;50.836;12.958;2023-05-12T00:43:09;97748.63;;;16.21;56.85
9746;BME280;4912;50.836;12.958;2023-05-12T00:45:39;97752.69;;;16.20;56.68
9746;BME280;4912;50.836;12.958;2023-05-12T00:48:10;97746.88;;;16.24;57.01
9746;BME280;4912;50.836;12.958;2023-05-12T00:50:40;97747.13;;;16.26;56.55
9746;BME280;4912;50.836;12.958;2023-05-12T00:53:15;97744.09;;;16.24;56.25
9746;BME280;4912;50.836;12.958;2023-05-12T00:55:48;97745.63;;;16.25;56.51
9746;BME280;4912;50.836;12.958;2023-05-12T00:58:19;97752.47;;;16.24;57.42
9746;BME280;4912;50.836;12.958;2023-05-12T01:00:49;97749.91;;;16.26;58.44
9746;BME280;4912;50.836;12.958;2023-05-12T01:03:20;97743.59;;;16.25;58.92
9746;BME280;4912;50.836;12.958;2023-05-12T01:05:53;97739.28;;;16.24;57.61
9746;BME280;4912;50.836;12.958;2023-05-12T01:08:26;97732.16;;;16.23;58.33
9746;BME280;4912;50.836;12.958;2023-05-12T01:11:01;97734.19;;;16.23;59.52
9746;BME280;4912;50.836;12.958;2023-05-12T01:13:31;97729.88;;;16.22;59.37
9746;BME280;4912;50.836;12.958;2023-05-12T01:16:01;97731.38;;;16.23;60.07
9746;BME280;4912;50.836;12.958;2023-05-12T01:18:34;97735.44;;;16.22;60.13
9746;BME280;4912;50.836;12.958;2023-05-12T01:21:07;97732.41;;;16.20;60.24
9746;BME280;4912;50.836;12.958;2023-05-12T01:23:39;97730.38;;;16.20;60.30
9746;BME280;4912;50.836;12.958;2023-05-12T01:26:14;97746.13;;;16.18;61.49
9746;BME280;4912;50.836;12.958;2023-05-12T01:28:44;97745.34;;;16.17;62.07
9746;BME280;4912;50.836;12.958;2023-05-12T01:31:15;97744.59;;;16.17;62.11
9746;BME280;4912;50.836;12.958;2023-05-12T01:33:46;97744.09;;;16.13;61.80
9746;BME280;4912;50.836;12.958;2023-05-12T01:36:17;97735.44;;;16.16;61.89
9746;BME280;4912;50.836;12.958;2023-05-12T01:38:47;97744.31;;;16.15;62.79
9746;BME280;4912;50.836;12.958;2023-05-12T01:41:23;97739.00;;;16.11;62.87
9746;BME280;4912;50.836;12.958;2023-05-12T01:43:53;97739.28;;;16.08;63.05
9746;BME280;4912;50.836;12.958;2023-05-12T01:46:24;97736.22;;;16.06;63.33
9746;BME280;4912;50.836;12.958;2023-05-12T01:48:57;97745.09;;;16.04;63.74
9746;BME280;4912;50.836;12.958;2023-05-12T01:51:27;97745.09;;;15.98;63.89
9746;BME280;4912;50.836;12.958;2023-05-12T01:53:58;97741.53;;;15.98;63.79
9746;BME280;4912;50.836;12.958;2023-05-12T01:56:34;97740.25;;;15.93;64.14
9746;BME280;4912;50.836;12.958;2023-05-12T01:59:04;97742.78;;;15.91;64.35
9746;BME280;4912;50.836;12.958;2023-05-12T02:01:35;97742.28;;;15.87;64.62
9746;BME280;4912;50.836;12.958;2023-05-12T02:04:06;97736.19;;;15.83;64.34
9746;BME280;4912;50.836;12.958;2023-05-12T02:06:36;97738.22;;;15.83;64.07
9746;BME280;4912;50.836;12.958;2023-05-12T02:09:07;97733.91;;;15.76;64.44
9746;BME280;4912;50.836;12.958;2023-05-12T02:11:40;97729.06;;;15.71;64.07
9746;BME280;4912;50.836;12.958;2023-05-12T02:14:10;97735.91;;;15.70;63.91
9746;BME280;4912;50.836;12.958;2023-05-12T02:16:40;97742.25;;;15.65;64.35
9746;BME280;4912;50.836;12.958;2023-05-12T02:19:11;97734.63;;;15.60;64.67
9746;BME280;4912;50.836;12.958;2023-05-12T02:21:41;97738.91;;;15.55;64.45
9746;BME280;4912;50.836;12.958;2023-05-12T02:24:11;97742.94;;;15.49;64.67
9746;BME280;4912;50.836;12.958;2023-05-12T02:26:45;97744.19;;;15.48;64.75
9746;BME280;4912;50.836;12.958;2023-05-12T02:29:16;97741.13;;;15.40;64.83
9746;BME280;4912;50.836;12.958;2023-05-12T02:31:47;97736.78;;;15.34;65.29
9746;BME280;4912;50.836;12.958;2023-05-12T02:34:17;97742.09;;;15.32;64.92
9746;BME280;4912;50.836;12.958;2023-05-12T02:36:48;97744.88;;;15.26;65.31
9746;BME280;4912;50.836;12.958;2023-05-12T02:39:18;97739.53;;;15.23;64.78
9746;BME280;4912;50.836;12.958;2023-05-12T02:41:51;97741.28;;;15.14;65.45
9746;BME280;4912;50.836;12.958;2023-05-12T02:44:21;97744.56;;;15.07;65.38
9746;BME280;4912;50.836;12.958;2023-05-12T02:46:52;97742.47;;;15.02;65.68
9746;BME280;4912;50.836;12.958;2023-05-12T02:49:23;97743.00;;;15.01;65.41
9746;BME280;4912;50.836;12.958;2023-05-12T02:51:54;97744.75;;;14.98;65.33
9746;BME280;4912;50.836;12.958;2023-05-12T02:54:24;97738.16;;;14.96;65.53
9746;BME280;4912;50.836;12.958;2023-05-12T02:56:57;97742.44;;;14.91;65.95
9746;BME280;4912;50.836;12.958;2023-05-12T02:59:27;97738.63;;;14.89;65.79
9746;BME280;4912;50.836;12.958;2023-05-12T03:01:58;97740.94;;;14.90;65.48
9746;BME280;4912;50.836;12.958;2023-05-12T03:04:28;97736.34;;;14.87;66.69
9746;BME280;4912;50.836;12.958;2023-05-12T03:06:58;97742.41;;;14.86;67.55
9746;BME280;4912;50.836;12.958;2023-05-12T03:09:29;97736.59;;;14.84;67.61
9746;BME280;4912;50.836;12.958;2023-05-12T03:12:02;97743.94;;;14.87;67.78
9746;BME280;4912;50.836;12.958;2023-05-12T03:14:33;97743.66;;;14.85;67.99
9746;BME280;4912;50.836;12.958;2023-05-12T03:17:04;97739.13;;;14.87;68.64
9746;BME280;4912;50.836;12.958;2023-05-12T03:19:34;97743.94;;;14.87;68.51
9746;BME280;4912;50.836;12.958;2023-05-12T03:22:04;97747.72;;;14.84;68.79
9746;BME280;4912;50.836;12.958;2023-05-12T03:24:35;97752.00;;;14.85;68.14
9746;BME280;4912;50.836;12.958;2023-05-12T03:27:08;97743.94;;;14.87;67.10
9746;BME280;4912;50.836;12.958;2023-05-12T03:29:38;97744.69;;;14.87;67.13
9746;BME280;4912;50.836;12.958;2023-05-12T03:32:08;97745.47;;;14.88;67.74
9746;BME280;4912;50.836;12.958;2023-05-12T03:34:39;97745.47;;;14.88;67.31
9746;BME280;4912;50.836;12.958;2023-05-12T03:37:10;97744.94;;;14.84;67.44
9746;BME280;4912;50.836;12.958;2023-05-12T03:39:40;97738.09;;;14.85;68.07
9746;BME280;4912;50.836;12.958;2023-05-12T03:42:13;97742.91;;;14.84;68.23
9746;BME280;4912;50.836;12.958;2023-05-12T03:44:43;97742.91;;;14.84;67.87
9746;BME280;4912;50.836;12.958;2023-05-12T03:47:13;97746.19;;;14.83;68.14
9746;BME280;4912;50.836;12.958;2023-05-12T03:49:44;97745.44;;;14.82;67.13
9746;BME280;4912;50.836;12.958;2023-05-12T03:52:14;97746.97;;;14.83;67.67
9746;BME280;4912;50.836;12.958;2023-05-12T03:54:44;97739.63;;;14.86;68.13
9746;BME280;4912;50.836;12.958;2023-05-12T03:57:17;97740.88;;;14.85;68.31
9746;BME280;4912;50.836;12.958;2023-05-12T03:59:47;97741.41;;;14.83;68.86
9746;BME280;4912;50.836;12.958;2023-05-12T04:02:17;97739.88;;;14.82;69.10
9746;BME280;4912;50.836;12.958;2023-05-12T04:04:48;97745.19;;;14.86;68.65
9746;BME280;4912;50.836;12.958;2023-05-12T04:07:19;97746.22;;;14.88;69.91
9746;BME280;4912;50.836;12.958;2023-05-12T04:09:49;97748.28;;;14.93;68.41
9746;BME280;4912;50.836;12.958;2023-05-12T04:12:22;97750.06;;;14.96;67.38
9746;BME280;4912;50.836;12.958;2023-05-12T04:14:52;97752.84;;;14.96;67.95
9746;BME280;4912;50.836;12.958;2023-05-12T04:17:23;97754.63;;;14.99;67.82
9746;BME280;4912;50.836;12.958;2023-05-12T04:19:53;97760.22;;;14.99;68.26
9746;BME280;4912;50.836;12.958;2023-05-12T04:22:24;97761.97;;;14.97;66.80
9746;BME280;4912;50.836;12.958;2023-05-12T04:24:54;97763.50;;;14.98;66.44
9746;BME280;4912;50.836;12.958;2023-05-12T04:27:27;97760.22;;;14.99;66.32
9746;BME280;4912;50.836;12.958;2023-05-12T04:29:58;97767.31;;;15.00;66.85
9746;BME280;4912;50.836;12.958;2023-05-12T04:32:33;97757.66;;;14.96;67.21
9746;BME280;4912;50.836;12.958;2023-05-12T04:35:03;97768.78;;;14.90;67.89
9746;BME280;4912;50.836;12.958;2023-05-12T04:37:34;97767.47;;;14.86;67.60
9746;BME280;4912;50.836;12.958;2023-05-12T04:40:05;97769.78;;;14.87;67.12
9746;BME280;4912;50.836;12.958;2023-05-12T04:42:39;97761.41;;;14.87;66.93
9746;BME280;4912;50.836;12.958;2023-05-12T04:45:10;97764.72;;;14.91;67.24
9746;BME280;4912;50.836;12.958;2023-05-12T04:47:40;97768.31;;;14.97;67.33
9746;BME280;4912;50.836;12.958;2023-05-12T04:50:11;97763.53;;;15.03;66.84
9746;BME280;4912;50.836;12.958;2023-05-12T04:52:42;97758.69;;;14.98;66.23
9746;BME280;4912;50.836;12.958;2023-05-12T04:55:12;97766.31;;;15.03;66.37
9746;BME280;4912;50.836;12.958;2023-05-12T04:57:46;97758.75;;;15.09;65.59
9746;BME280;4912;50.836;12.958;2023-05-12T05:00:16;97763.56;;;15.14;65.94
9746;BME280;4912;50.836;12.958;2023-05-12T05:02:47;97766.66;;;15.22;67.25
9746;BME280;4912;50.836;12.958;2023-05-12T05:05:17;97777.09;;;15.33;67.11
9746;BME280;4912;50.836;12.958;2023-05-12T05:07:48;97784.47;;;15.36;66.61
9746;BME280;4912;50.836;12.958;2023-05-12T05:10:18;97775.81;;;15.34;66.53
9746;BME280;4912;50.836;12.958;2023-05-12T05:12:51;97781.66;;;15.36;67.13
9746;BME280;4912;50.836;12.958;2023-05-12T05:15:22;97781.19;;;15.37;66.92
9746;BME280;4912;50.836;12.958;2023-05-12T05:17:52;97778.41;;;15.43;65.89
9746;BME280;4912;50.836;12.958;2023-05-12T05:20:24;97774.16;;;15.53;66.05
9746;BME280;4912;50.836;12.958;2023-05-12T05:22:55;97777.47;;;15.63;67.20
9746;BME280;4912;50.836;12.958;2023-05-12T05:25:25;97780.28;;;15.68;65.18
9746;BME280;4912;50.836;12.958;2023-05-12T05:27:58;97778.81;;;15.78;64.06
9746;BME280;4912;50.836;12.958;2023-05-12T05:30:28;97786.16;;;15.87;63.87
9746;BME280;4912;50.836;12.958;2023-05-12T05:32:59;97786.69;;;15.96;63.28
9746;BME280;4912;50.836;12.958;2023-05-12T05:35:33;97789.50;;;16.02;63.28
9746;BME280;4912;50.836;12.958;2023-05-12T05:38:03;97796.09;;;16.05;63.29
9746;BME280;4912;50.836;12.958;2023-05-12T05:40:33;97790.00;;;16.06;63.10
9746;BME280;4912;50.836;12.958;2023-05-12T05:43:21;97797.13;;;16.13;62.32
9746;BME280;4912;50.836;12.958;2023-05-12T05:45:52;97790.28;;;16.14;63.17
9746;BME280;4912;50.836;12.958;2023-05-12T05:48:24;97795.09;;;16.19;63.49
9746;BME280;4912;50.836;12.958;2023-05-12T05:50:55;97799.91;;;16.24;63.18
9746;BME280;4912;50.836;12.958;2023-05-12T05:53:25;97800.94;;;16.26;63.14
9746;BME280;4912;50.836;12.958;2023-05-12T05:55:55;97803.00;;;16.37;63.35
9746;BME280;4912;50.836;12.958;2023-05-12T05:58:28;97802.44;;;16.44;62.95
9746;BME280;4912;50.836;12.958;2023-05-12T06:01:01;97800.69;;;16.52;62.16
9746;BME280;4912;50.836;12.958;2023-05-12T06:03:31;97804.75;;;16.46;61.79
9746;BME280;4912;50.836;12.958;2023-05-12T06:06:02;97806.78;;;16.56;63.26
9746;BME280;4912;50.836;12.958;2023-05-12T06:08:33;97801.22;;;16.67;63.32
9746;BME280;4912;50.836;12.958;2023-05-12T06:11:04;97804.25;;;16.75;60.95
9746;BME280;4912;50.836;12.958;2023-05-12T06:13:37;97803.75;;;16.82;61.06
9746;BME280;4912;50.836;12.958;2023-05-12T06:16:07;97801.69;;;16.94;62.06
9746;BME280;4912;50.836;12.958;2023-05-12T06:18:38;97800.91;;;16.99;61.34
9746;BME280;4912;50.836;12.958;2023-05-12T06:21:08;97804.72;;;17.07;60.47
9746;BME280;4912;50.836;12.958;2023-05-12T06:23:38;97800.38;;;17.11;61.42
9746;BME280;4912;50.836;12.958;2023-05-12T06:26:08;97808.75;;;17.17;62.45
9746;BME280;4912;50.836;12.958;2023-05-12T06:28:41;97807.47;;;17.18;61.21
9746;BME280;4912;50.836;12.958;2023-05-12T06:31:12;97814.59;;;17.19;62.02
9746;BME280;4912;50.836;12.958;2023-05-12T06:33:42;97817.09;;;17.28;60.68
9746;BME280;4912;50.836;12.958;2023-05-12T06:36:12;97810.25;;;17.24;62.18
9746;BME280;4912;50.836;12.958;2023-05-12T06:38:42;97815.84;;;17.29;62.18
9746;BME280;4912;50.836;12.958;2023-05-12T06:41:12;97810.22;;;17.35;59.55
9746;BME280;4912;50.836;12.958;2023-05-12T06:43:45;97827.72;;;17.52;59.10
9746;BME280;4912;50.836;12.958;2023-05-12T06:46:15;97824.66;;;17.61;60.12
9746;BME280;4912;50.836;12.958;2023-05-12T06:48:46;97819.25;;;17.74;59.89
9746;BME280;4912;50.836;12.958;2023-05-12T06:51:16;97821.22;;;17.90;58.08
9746;BME280;4912;50.836;12.958;2023-05-12T06:53:46;97822.16;;;17.98;57.40
9746;BME280;4912;50.836;12.958;2023-05-12T06:56:16;97811.91;;;18.12;58.41
9746;BME280;4912;50.836;12.958;2023-05-12T06:58:53;97822.03;;;18.21;57.03
9746;BME280;4912;50.836;12.958;2023-05-12T07:01:26;97813.28;;;18.35;56.98
9746;BME280;4912;50.836;12.958;2023-05-12T07:03:57;97820.13;;;18.40;53.97
9746;BME280;4912;50.836;12.958;2023-05-12T07:06:28;97819.34;;;18.39;53.64
9746;BME280;4912;50.836;12.958;2023-05-12T07:09:00;97818.53;;;18.45;53.70
9746;BME280;4912;50.836;12.958;2023-05-12T07:11:30;97814.66;;;18.59;54.06
9746;BME280;4912;50.836;12.958;2023-05-12T07:14:03;97821.16;;;18.72;53.33
9746;BME280;4912;50.836;12.958;2023-05-12T07:16:33;97822.81;;;18.87;54.40
9746;BME280;4912;50.836;12.958;2023-05-12T07:19:03;97814.06;;;18.96;53.00
9746;BME280;4912;50.836;12.958;2023-05-12T07:21:34;97813.91;;;19.12;51.11
9746;BME280;4912;50.836;12.958;2023-05-12T07:24:05;97817.59;;;19.26;51.29
9746;BME280;4912;50.836;12.958;2023-05-12T07:26:35;97813.06;;;19.42;49.78
9746;BME280;4912;50.836;12.958;2023-05-12T07:29:08;97812.38;;;19.60;50.02
9746;BME280;4912;50.836;12.958;2023-05-12T07:31:39;97808.91;;;19.73;48.88
9746;BME280;4912;50.836;12.958;2023-05-12T07:34:10;97808.44;;;19.87;48.89
9746;BME280;4912;50.836;12.958;2023-05-12T07:36:40;97809.66;;;20.11;49.61
9746;BME280;4912;50.836;12.958;2023-05-12T07:39:11;97809.09;;;20.31;49.33
9746;BME280;4912;50.836;12.958;2023-05-12T07:41:45;97811.69;;;20.48;48.93
9746;BME280;4912;50.836;12.958;2023-05-12T07:44:17;97810.34;;;20.67;48.81
9746;BME280;4912;50.836;12.958;2023-05-12T07:46:47;97807.56;;;20.94;48.98
9746;BME280;4912;50.836;12.958;2023-05-12T07:49:18;97811.22;;;21.20;47.23
9746;BME280;4912;50.836;12.958;2023-05-12T07:51:49;97814.25;;;21.36;46.76
9746;BME280;4912;50.836;12.958;2023-05-12T07:54:19;97808.91;;;21.45;46.37
9746;BME280;4912;50.836;12.958;2023-05-12T07:56:49;97809.69;;;21.46;45.76
9746;BME280;4912;50.836;12.958;2023-05-12T07:59:22;97813.47;;;21.48;44.95
9746;BME280;4912;50.836;12.958;2023-05-12T08:01:52;97813.44;;;21.75;45.74
9746;BME280;4912;50.836;12.958;2023-05-12T08:04:22;97814.09;;;21.81;42.99
9746;BME280;4912;50.836;12.958;2023-05-12T08:06:52;97817.94;;;22.17;43.25
9746;BME280;4912;50.836;12.958;2023-05-12T08:09:22;97810.06;;;22.36;42.82
9746;BME280;4912;50.836;12.958;2023-05-12T08:11:53;97816.06;;;22.54;42.45
9746;BME280;4912;50.836;12.958;2023-05-12T08:14:25;97810.28;;;22.80;41.80
9746;BME280;4912;50.836;12.958;2023-05-12T08:16:56;97811.47;;;22.84;40.45
9746;BME280;4912;50.836;12.958;2023-05-12T08:19:26;97817.16;;;23.13;40.66
9746;BME280;4912;50.836;12.958;2023-05-12T08:21:56;97808.66;;;23.62;40.83
9746;BME280;4912;50.836;12.958;2023-05-12T08:24:26;97809.97;;;24.12;39.07
9746;BME280;4912;50.836;12.958;2023-05-12T08:26:56;97807.50;;;24.67;38.79
9746;BME280;4912;50.836;12.958;2023-05-12T08:29:29;97812.03;;;25.01;36.58
9746;BME280;4912;50.836;12.958;2023-05-12T08:31:59;97805.75;;;25.55;36.12
9746;BME280;4912;50.836;12.958;2023-05-12T08:34:29;97806.88;;;26.15;35.33
9746;BME280;4912;50.836;12.958;2023-05-12T08:37:00;97805.38;;;26.46;34.83
9746;BME280;4912;50.836;12.958;2023-05-12T08:39:30;97806.88;;;25.52;35.16
9746;BME280;4912;50.836;12.958;2023-05-12T08:42:04;97811.84;;;24.99;35.43
9746;BME280;4912;50.836;12.958;2023-05-12T08:44:45;97814.81;;;24.55;36.79
9746;BME280;4912;50.836;12.958;2023-05-12T08:47:16;97817.97;;;24.29;38.08
9746;BME280;4912;50.836;12.958;2023-05-12T08:49:51;97810.97;;;24.22;37.42
9746;BME280;4912;50.836;12.958;2023-05-12T08:52:28;97805.41;;;24.75;36.11
9746;BME280;4912;50.836;12.958;2023-05-12T08:54:59;97814.66;;;25.29;35.73
9746;BME280;4912;50.836;12.958;2023-05-12T08:57:30;97807.69;;;24.77;36.67
9746;BME280;4912;50.836;12.958;2023-05-12T09:00:04;97809.19;;;24.70;37.26
9746;BME280;4912;50.836;12.958;2023-05-12T09:02:38;97801.97;;;25.53;34.11
9746;BME280;4912;50.836;12.958;2023-05-12T09:05:19;97809.31;;;25.63;35.20
9746;BME280;4912;50.836;12.958;2023-05-12T09:07:50;97808.06;;;25.11;35.94
9746;BME280;4912;50.836;12.958;2023-05-12T09:10:21;97810.91;;;24.73;36.25
9746;BME280;4912;50.836;12.958;2023-05-12T09:13:07;97816.31;;;24.41;36.73
9746;BME280;4912;50.836;12.958;2023-05-12T09:15:46;97807.75;;;24.18;35.97
9746;BME280;4912;50.836;12.958;2023-05-12T09:18:19;97807.03;;;24.25;35.84
9746;BME280;4912;50.836;12.958;2023-05-12T09:20:49;97807.88;;;25.32;34.60
9746;BME280;4912;50.836;12.958;2023-05-12T09:23:19;97790.44;;;27.20;31.12
9746;BME280;4912;50.836;12.958;2023-05-12T09:25:57;97797.88;;;26.66;30.12
9746;BME280;4912;50.836;12.958;2023-05-12T09:28:36;97786.88;;;26.95;29.33
9746;BME280;4912;50.836;12.958;2023-05-12T09:31:16;97812.88;;;26.27;28.07
9746;BME280;4912;50.836;12.958;2023-05-12T09:33:46;97806.91;;;26.00;26.85
9746;BME280;4912;50.836;12.958;2023-05-12T09:36:17;97798.66;;;25.87;26.66
9746;BME280;4912;50.836;12.958;2023-05-12T09:38:57;97803.34;;;24.99;27.67
9746;BME280;4912;50.836;12.958;2023-05-12T09:41:30;97790.06;;;25.54;26.35
9746;BME280;4912;50.836;12.958;2023-05-12T09:44:03;97799.22;;;25.15;27.74
9746;BME280;4912;50.836;12.958;2023-05-12T09:46:37;97804.44;;;24.50;27.91
9746;BME280;4912;50.836;12.958;2023-05-12T09:49:08;97822.31;;;23.86;28.37
9746;BME280;4912;50.836;12.958;2023-05-12T09:51:38;97812.56;;;23.59;29.29
9746;BME280;4912;50.836;12.958;2023-05-12T09:54:09;97818.38;;;23.53;29.55
9746;BME280;4912;50.836;12.958;2023-05-12T09:56:39;97811.97;;;23.53;30.53
9746;BME280;4912;50.836;12.958;2023-05-12T09:59:10;97813.88;;;23.58;31.13
9746;BME280;4912;50.836;12.958;2023-05-12T10:01:44;97814.59;;;23.51;30.31
9746;BME280;4912;50.836;12.958;2023-05-12T10:04:14;97815.09;;;23.42;29.91
9746;BME280;4912;50.836;12.958;2023-05-12T10:06:44;97821.66;;;23.37;29.68
9746;BME280;4912;50.836;12.958;2023-05-12T10:09:17;97827.84;;;23.35;29.21
9746;BME280;4912;50.836;12.958;2023-05-12T10:11:50;97818.16;;;23.23;29.53
9746;BME280;4912;50.836;12.958;2023-05-12T10:14:22;97826.03;;;23.17;30.30
9746;BME280;4912;50.836;12.958;2023-05-12T10:16:55;97815.28;;;23.15;29.82
9746;BME280;4912;50.836;12.958;2023-05-12T10:19:27;97819.16;;;23.33;30.23
9746;BME280;4912;50.836;12.958;2023-05-12T10:21:57;97813.78;;;23.43;29.70
9746;BME280;4912;50.836;12.958;2023-05-12T10:24:29;97814.13;;;23.39;30.48
9746;BME280;4912;50.836;12.958;2023-05-12T10:26:59;97820.38;;;23.45;30.07
9746;BME280;4912;50.836;12.958;2023-05-12T10:29:30;97828.22;;;23.60;29.69
9746;BME280;4912;50.836;12.958;2023-05-12T10:32:04;97813.94;;;23.65;30.61
9746;BME280;4912;50.836;12.958;2023-05-12T10:34:35;97816.72;;;23.58;30.09
9746;BME280;4912;50.836;12.958;2023-05-12T10:37:06;97813.97;;;23.45;30.97
9746;BME280;4912;50.836;12.958;2023-05-12T10:39:45;97818.44;;;23.33;31.07
9746;BME280;4912;50.836;12.958;2023-05-12T10:42:16;97824.16;;;23.19;31.41
9746;BME280;4912;50.836;12.958;2023-05-12T10:44:52;97823.00;;;23.15;30.95
9746;BME280;4912;50.836;12.958;2023-05-12T10:47:30;97820.78;;;23.21;30.66
9746;BME280;4912;50.836;12.958;2023-05-12T10:50:06;97827.34;;;23.44;30.48
9746;BME280;4912;50.836;12.958;2023-05-12T10:52:39;97829.69;;;23.89;30.46
9746;BME280;4912;50.836;12.958;2023-05-12T10:55:10;97818.28;;;24.18;30.15
9746;BME280;4912;50.836;12.958;2023-05-12T10:57:47;97823.28;;;24.40;29.46
9746;BME280;4912;50.836;12.958;2023-05-12T11:00:20;97816.31;;;24.41;29.60
9746;BME280;4912;50.836;12.958;2023-05-12T11:02:54;97824.03;;;24.40;29.32
9746;BME280;4912;50.836;12.958;2023-05-12T11:05:32;97818.63;;;25.18;28.98
9746;BME280;4912;50.836;12.958;2023-05-12T11:08:03;97812.13;;;26.83;27.86
9746;BME280;4912;50.836;12.958;2023-05-12T11:10:35;97816.03;;;26.38;27.25
9746;BME280;4912;50.836;12.958;2023-05-12T11:13:05;97821.03;;;26.15;26.82
9746;BME280;4912;50.836;12.958;2023-05-12T11:15:36;97815.94;;;26.14;26.96
9746;BME280;4912;50.836;12.958;2023-05-12T11:18:09;97812.63;;;25.92;27.00
9746;BME280;4912;50.836;12.958;2023-05-12T11:20:39;97815.72;;;26.27;27.58
9746;BME280;4912;50.836;12.958;2023-05-12T11:23:09;97817.16;;;25.95;28.33
9746;BME280;4912;50.836;12.958;2023-05-12T11:25:39;97817.81;;;25.63;28.25
9746;BME280;4912;50.836;12.958;2023-05-12T11:28:13;97817.28;;;25.50;28.85
9746;BME280;4912;50.836;12.958;2023-05-12T11:30:47;97818.25;;;25.22;27.69
9746;BME280;4912;50.836;12.958;2023-05-12T11:33:23;97812.75;;;25.39;27.67
9746;BME280;4912;50.836;12.958;2023-05-12T11:35:53;97816.53;;;25.34;27.72
9746;BME280;4912;50.836;12.958;2023-05-12T11:38:24;97808.94;;;25.67;28.34
9746;BME280;4912;50.836;12.958;2023-05-12T11:40:54;97812.28;;;25.81;28.68
9746;BME280;4912;50.836;12.958;2023-05-12T11:43:24;97816.84;;;27.13;26.63
9746;BME280;4912;50.836;12.958;2023-05-12T11:45:57;97819.91;;;27.08;26.64
9746;BME280;4912;50.836;12.958;2023-05-12T11:48:34;97824.78;;;27.15;25.29
9746;BME280;4912;50.836;12.958;2023-05-12T11:51:04;97820.28;;;27.46;25.48
9746;BME280;4912;50.836;12.958;2023-05-12T11:53:38;97835.16;;;27.79;24.89
9746;BME280;4912;50.836;12.958;2023-05-12T11:56:09;97836.19;;;27.07;24.52
9746;BME280;4912;50.836;12.958;2023-05-12T11:58:51;97828.75;;;26.62;25.39
9746;BME280;4912;50.836;12.958;2023-05-12T12:01:22;97832.44;;;26.47;26.12
9746;BME280;4912;50.836;12.958;2023-05-12T12:03:55;97833.91;;;26.56;26.13
9746;BME280;4912;50.836;12.958;2023-05-12T12:06:26;97834.50;;;27.04;25.35
9746;BME280;4912;50.836;12.958;2023-05-12T12:08:57;97826.53;;;27.27;24.75
9746;BME280;4912;50.836;12.958;2023-05-12T12:11:28;97843.63;;;27.45;24.69
9746;BME280;4912;50.836;12.958;2023-05-12T12:13:59;97837.81;;;26.93;24.66
9746;BME280;4912;50.836;12.958;2023-05-12T12:16:30;97832.56;;;27.32;24.76
9746;BME280;4912;50.836;12.958;2023-05-12T12:19:03;97835.56;;;27.34;24.81
9746;BME280;4912;50.836;12.958;2023-05-12T12:21:34;97829.38;;;26.53;25.26
9746;BME280;4912;50.836;12.958;2023-05-12T12:24:05;97837.97;;;25.90;25.46
9746;BME280;4912;50.836;12.958;2023-05-12T12:26:35;97834.81;;;25.63;25.75
9746;BME280;4912;50.836;12.958;2023-05-12T12:29:05;97842.63;;;25.17;26.28
9746;BME280;4912;50.836;12.958;2023-05-12T12:31:35;97849.75;;;24.80;27.14
9746;BME280;4912;50.836;12.958;2023-05-12T12:34:08;97851.75;;;24.42;27.82
9746;BME280;4912;50.836;12.958;2023-05-12T12:36:39;97844.00;;;24.35;28.18
9746;BME280;4912;50.836;12.958;2023-05-12T12:39:09;97848.31;;;24.28;28.86
9746;BME280;4912;50.836;12.958;2023-05-12T12:41:40;97844.38;;;24.39;29.32
9746;BME280;4912;50.836;12.958;2023-05-12T12:44:10;97847.25;;;24.54;29.50
9746;BME280;4912;50.836;12.958;2023-05-12T12:46:40;97844.88;;;25.11;29.24
9746;BME280;4912;50.836;12.958;2023-05-12T12:49:13;97847.34;;;25.07;28.39
9746;BME280;4912;50.836;12.958;2023-05-12T12:51:43;97846.34;;;27.94;26.29
9746;BME280;4912;50.836;12.958;2023-05-12T12:54:13;97846.03;;;27.90;25.16
9746;BME280;4912;50.836;12.958;2023-05-12T12:56:44;97843.16;;;27.56;25.84
9746;BME280;4912;50.836;12.958;2023-05-12T12:59:14;97843.59;;;27.27;26.32
9746;BME280;4912;50.836;12.958;2023-05-12T13:01:44;97848.06;;;27.38;25.46
9746;BME280;4912;50.836;12.958;2023-05-12T13:04:17;97850.00;;;28.39;25.26
9746;BME280;4912;50.836;12.958;2023-05-12T13:06:48;97845.75;;;28.30;23.47
9746;BME280;4912;50.836;12.958;2023-05-12T13:09:19;97847.53;;;27.74;24.14
9746;BME280;4912;50.836;12.958;2023-05-12T13:11:49;97855.00;;;27.45;24.75
9746;BME280;4912;50.836;12.958;2023-05-12T13:14:19;97848.84;;;26.81;25.11
9746;BME280;4912;50.836;12.958;2023-05-12T13:16:50;97839.63;;;26.48;25.63
9746;BME280;4912;50.836;12.958;2023-05-12T13:19:23;97843.66;;;26.38;26.44
9746;BME280;4912;50.836;12.958;2023-05-12T13:21:53;97848.25;;;26.26;26.66
9746;BME280;4912;50.836;12.958;2023-05-12T13:24:23;97840.38;;;27.06;26.24
9746;BME280;4912;50.836;12.958;2023-05-12T13:26:53;97843.63;;;27.03;25.81
9746;BME280;4912;50.836;12.958;2023-05-12T13:29:24;97833.16;;;26.56;25.82
9746;BME280;4912;50.836;12.958;2023-05-12T13:31:54;97836.16;;;26.18;27.06